createdAt,value
2023-04-12T00:02:16.121Z,2.40
2023-04-12T00:05:18.859Z,3.33
2023-04-12T00:08:33.316Z,5.15
2023-04-12T00:11:36.449Z,2.92
2023-04-12T00:14:38.962Z,3.35
2023-04-12T00:17:41.923Z,3.60
2023-04-12T00:20:44.764Z,3.20
2023-04-12T00:23:47.520Z,2.28
2023-04-12T00:26:50.002Z,2.13
2023-04-12T00:29:52.655Z,3.97
2023-04-12T00:32:55.586Z,5.67
2023-04-12T00:35:58.053Z,2.60
2023-04-12T00:39:00.708Z,3.60
2023-04-12T00:42:06.088Z,2.50
2023-04-12T00:45:09.478Z,2.95
2023-04-12T00:48:12.861Z,4.53
2023-04-12T00:51:18.229Z,3.83
2023-04-12T00:54:22.260Z,2.72
2023-04-12T00:57:24.707Z,2.15
2023-04-12T01:00:27.470Z,3.67
2023-04-12T01:03:30.955Z,3.37
2023-04-12T01:06:51.073Z,3.13
2023-04-12T01:10:06.340Z,3.78
2023-04-12T01:13:27.732Z,4.35
2023-04-12T01:16:35.285Z,4.95
2023-04-12T01:19:59.081Z,2.77
2023-04-12T01:23:40.038Z,4.60
2023-04-12T01:26:45.421Z,3.05
2023-04-12T01:29:50.136Z,2.92
2023-04-12T01:32:55.652Z,2.55
2023-04-12T01:36:07.442Z,4.40
2023-04-12T01:39:10.879Z,2.90
2023-04-12T01:42:19.514Z,3.55
2023-04-12T01:45:22.126Z,3.63
2023-04-12T01:48:24.742Z,4.55
2023-04-12T01:51:49.720Z,3.30
2023-04-12T01:54:57.566Z,3.10
2023-04-12T01:58:02.744Z,5.18
2023-04-12T02:01:07.156Z,4.32
2023-04-12T02:04:10.812Z,4.30
2023-04-12T02:07:15.719Z,5.40
2023-04-12T02:10:29.395Z,4.90
2023-04-12T02:13:32.195Z,3.95
2023-04-12T02:16:34.800Z,4.32
2023-04-12T02:19:37.688Z,3.80
2023-04-12T02:22:40.306Z,3.27
2023-04-12T02:25:44.180Z,5.27
2023-04-12T02:28:47.042Z,4.45
2023-04-12T02:31:52.534Z,4.35
2023-04-12T02:34:59.092Z,5.63
2023-04-12T02:38:03.672Z,4.37
2023-04-12T02:41:06.422Z,5.30
2023-04-12T02:44:11.004Z,3.30
2023-04-12T02:47:18.656Z,2.80
2023-04-12T02:50:24.239Z,3.03
2023-04-12T02:53:34.361Z,3.00
2023-04-12T02:56:52.817Z,4.63
2023-04-12T03:00:21.668Z,4.75
2023-04-12T03:03:28.649Z,4.25
2023-04-12T03:06:35.126Z,4.43
2023-04-12T03:09:38.738Z,3.43
2023-04-12T03:12:41.805Z,4.80
2023-04-12T03:15:57.145Z,5.47
2023-04-12T03:19:06.830Z,4.47
2023-04-12T03:22:09.878Z,3.72
2023-04-12T03:25:17.916Z,5.80
2023-04-12T03:28:26.452Z,3.50
2023-04-12T03:31:29.625Z,5.00
2023-04-12T03:34:37.201Z,4.03
2023-04-12T03:37:47.376Z,5.10
2023-04-12T03:40:51.128Z,4.23
2023-04-12T03:43:59.076Z,4.57
2023-04-12T03:47:01.738Z,3.65
2023-04-12T03:50:12.235Z,4.85
2023-04-12T03:53:19.715Z,4.70
2023-04-12T03:56:23.200Z,4.03
2023-04-12T03:59:29.718Z,4.50
2023-04-12T04:02:33.572Z,5.93
2023-04-12T04:05:37.031Z,3.88
2023-04-12T04:08:42.599Z,4.80
2023-04-12T04:11:45.629Z,4.27
2023-04-12T04:14:48.403Z,3.70
2023-04-12T04:18:01.519Z,4.40
2023-04-12T04:21:07.480Z,5.35
2023-04-12T04:24:11.575Z,3.92
2023-04-12T04:27:17.661Z,5.00
2023-04-12T04:30:23.106Z,4.03
2023-04-12T04:33:25.652Z,3.72
2023-04-12T04:36:35.968Z,3.70
2023-04-12T04:39:39.688Z,4.95
2023-04-12T04:42:43.340Z,4.97
2023-04-12T04:45:50.747Z,5.07
2023-04-12T04:48:55.283Z,3.08
2023-04-12T04:51:57.696Z,7.22
2023-04-12T04:55:03.920Z,4.22
2023-04-12T04:58:13.527Z,4.33
2023-04-12T05:01:17.224Z,3.87
2023-04-12T05:04:23.080Z,3.92
2023-04-12T05:07:26.256Z,3.17
2023-04-12T05:10:29.455Z,2.88
2023-04-12T05:13:33.354Z,3.50
2023-04-12T05:16:36.239Z,3.40
2023-04-12T05:19:40.107Z,4.63
2023-04-12T05:22:43.175Z,3.28
2023-04-12T05:25:48.227Z,3.72
2023-04-12T05:28:52.589Z,3.97
2023-04-12T05:31:58.494Z,4.07
2023-04-12T05:35:02.050Z,1.70
2023-04-12T05:38:05.921Z,3.22
2023-04-12T05:41:14.246Z,3.20
2023-04-12T05:44:17.189Z,2.47
2023-04-12T05:47:20.387Z,2.58
2023-04-12T05:50:24.739Z,1.52
2023-04-12T05:53:33.682Z,2.67
2023-04-12T05:56:40.632Z,3.63
2023-04-12T05:59:44.016Z,1.40
2023-04-12T06:02:48.831Z,1.35
2023-04-12T06:05:53.649Z,1.52
2023-04-12T06:09:07.109Z,5.10
2023-04-12T06:12:19.571Z,2.45
2023-04-12T06:15:35.756Z,2.37
2023-04-12T06:18:50.448Z,2.83
2023-04-12T06:22:03.279Z,1.83
2023-04-12T06:25:16.308Z,4.07
2023-04-12T06:28:30.042Z,3.00
2023-04-12T06:31:43.006Z,3.00
2023-04-12T06:34:53.637Z,3.10
2023-04-12T06:38:02.991Z,2.80
2023-04-12T06:41:13.547Z,1.95
2023-04-12T06:44:25.832Z,3.40
2023-04-12T06:47:39.991Z,3.10
2023-04-12T06:50:50.467Z,3.30
2023-04-12T06:53:56.250Z,2.10
2023-04-12T06:56:59.240Z,3.42
2023-04-12T07:00:02.282Z,2.97
2023-04-12T07:03:04.858Z,2.50
2023-04-12T07:06:17.624Z,2.25
2023-04-12T07:09:26.933Z,1.95
2023-04-12T07:12:30.637Z,2.20
2023-04-12T07:15:34.557Z,2.58
2023-04-12T07:18:37.343Z,3.30
2023-04-12T07:21:40.110Z,2.15
2023-04-12T07:24:42.671Z,2.45
2023-04-12T07:27:45.365Z,2.90
2023-04-12T07:30:47.907Z,1.70
2023-04-12T07:33:54.898Z,2.90
2023-04-12T07:37:02.020Z,3.88
2023-04-12T07:40:05.583Z,2.28
2023-04-12T07:43:08.349Z,2.90
2023-04-12T07:46:11.219Z,3.45
2023-04-12T07:49:14.295Z,3.50
2023-04-12T07:52:17.253Z,2.75
2023-04-12T07:55:19.984Z,2.22
2023-04-12T07:58:24.568Z,2.83
2023-04-12T08:01:27.354Z,3.88
2023-04-12T08:04:32.812Z,3.37
2023-04-12T08:07:42.695Z,3.22
2023-04-12T08:10:49.810Z,3.67
2023-04-12T08:13:55.708Z,5.00
2023-04-12T08:17:00.884Z,1.75
2023-04-12T08:20:07.656Z,3.27
2023-04-12T08:23:14.483Z,3.22
2023-04-12T08:26:18.495Z,2.17
2023-04-12T08:29:21.124Z,2.83
2023-04-12T08:32:24.241Z,3.15
2023-04-12T08:35:27.449Z,2.43
2023-04-12T08:38:44.107Z,3.33
2023-04-12T08:41:49.435Z,4.95
2023-04-12T08:44:53.797Z,3.05
2023-04-12T08:47:56.566Z,1.95
2023-04-12T08:51:00.672Z,2.67
2023-04-12T08:54:04.921Z,3.70
2023-04-12T08:57:09.193Z,3.05
2023-04-12T09:00:13.391Z,2.38
2023-04-12T09:03:16.783Z,4.18
2023-04-12T09:06:19.493Z,2.70
2023-04-12T09:09:44.667Z,2.25
2023-04-12T09:12:47.459Z,2.97
2023-04-12T09:15:50.483Z,2.38
2023-04-12T09:18:53.186Z,2.42
2023-04-12T09:21:58.009Z,4.00
2023-04-12T09:25:01.608Z,1.90
2023-04-12T09:28:21.001Z,3.17
2023-04-12T09:31:24.917Z,2.50
2023-04-12T09:34:28.410Z,2.00
2023-04-12T09:37:32.735Z,1.80
2023-04-12T09:40:36.534Z,2.67
2023-04-12T09:43:39.779Z,2.08
2023-04-12T09:46:52.056Z,2.72
2023-04-12T09:49:54.914Z,2.30
2023-04-12T09:52:58.145Z,1.60
2023-04-12T09:56:05.718Z,2.80
2023-04-12T09:59:08.853Z,2.05
2023-04-12T10:02:19.536Z,2.17
2023-04-12T10:05:26.526Z,1.60
2023-04-12T10:08:33.426Z,3.00
2023-04-12T10:11:40.623Z,1.63
2023-04-12T10:14:44.154Z,1.52
2023-04-12T10:17:56.812Z,3.85
2023-04-12T10:21:15.960Z,2.40
2023-04-12T10:24:33.121Z,1.77
2023-04-12T10:27:48.670Z,3.13
2023-04-12T10:31:03.856Z,2.03
2023-04-12T10:34:19.443Z,2.60
2023-04-12T10:38:06.879Z,1.40
2023-04-12T10:41:24.228Z,2.97
2023-04-12T10:44:36.819Z,2.00
2023-04-12T10:47:56.298Z,1.70
2023-04-12T10:51:14.714Z,2.95
2023-04-12T10:54:17.389Z,2.63
2023-04-12T10:57:44.665Z,2.20
2023-04-12T11:01:00.427Z,3.13
2023-04-12T11:04:15.845Z,1.98
2023-04-12T11:07:39.500Z,2.65
2023-04-12T11:11:04.040Z,3.38
2023-04-12T11:14:11.367Z,2.00
2023-04-12T11:17:14.752Z,2.10
2023-04-12T11:20:17.985Z,1.85
2023-04-12T11:23:22.111Z,2.15
2023-04-12T11:26:25.556Z,1.80
2023-04-12T11:29:28.143Z,2.03
2023-04-12T11:32:31.650Z,2.60
2023-04-12T11:35:35.537Z,2.05
2023-04-12T11:38:38.392Z,2.75
2023-04-12T11:41:48.394Z,2.97
2023-04-12T11:44:58.755Z,4.23
2023-04-12T11:48:03.195Z,2.00
2023-04-12T11:51:25.228Z,2.83
2023-04-12T11:54:32.090Z,2.10
2023-04-12T11:57:35.327Z,3.25
2023-04-12T12:00:47.274Z,3.77
2023-04-12T12:03:55.091Z,2.75
2023-04-12T12:06:59.000Z,2.58
2023-04-12T12:10:09.244Z,2.60
2023-04-12T12:13:25.215Z,4.05
2023-04-12T12:16:32.055Z,2.70
2023-04-12T12:19:43.728Z,2.67
2023-04-12T12:22:46.949Z,4.35
2023-04-12T12:25:49.514Z,1.88
2023-04-12T12:28:54.145Z,3.70
2023-04-12T12:32:01.553Z,2.57
2023-04-12T12:35:15.857Z,2.40
2023-04-12T12:38:47.438Z,2.25
2023-04-12T12:41:58.915Z,4.00
2023-04-12T12:45:09.555Z,3.58
2023-04-12T12:48:24.785Z,3.43
2023-04-12T12:51:34.527Z,2.20
2023-04-12T12:54:41.569Z,3.88
2023-04-12T12:57:55.105Z,2.20
2023-04-12T13:01:09.036Z,3.45
2023-04-12T13:04:11.925Z,4.70
2023-04-12T13:07:15.520Z,4.20
2023-04-12T13:10:18.705Z,2.88
2023-04-12T13:13:21.262Z,2.80
2023-04-12T13:16:26.248Z,4.32
2023-04-12T13:19:29.864Z,2.40
2023-04-12T13:22:33.220Z,3.50
2023-04-12T13:25:36.081Z,2.63
2023-04-12T13:28:38.529Z,2.58
2023-04-12T13:31:41.148Z,2.92
2023-04-12T13:34:43.681Z,2.60
2023-04-12T13:37:46.236Z,3.03
2023-04-12T13:40:49.113Z,2.97
2023-04-12T13:43:51.598Z,2.78
2023-04-12T13:46:55.169Z,3.30
2023-04-12T13:49:57.680Z,3.57
2023-04-12T13:53:00.272Z,2.05
2023-04-12T13:56:04.028Z,2.20
2023-04-12T13:59:06.945Z,2.85
2023-04-12T14:02:10.141Z,2.17
2023-04-12T14:05:12.699Z,2.33
2023-04-12T14:08:15.139Z,4.07
2023-04-12T14:11:17.561Z,2.15
2023-04-12T14:14:20.130Z,3.03
2023-04-12T14:17:22.777Z,3.38
2023-04-12T14:20:25.601Z,2.20
2023-04-12T14:23:28.088Z,2.08
2023-04-12T14:26:30.622Z,1.95
2023-04-12T14:29:34.142Z,2.63
2023-04-12T14:32:36.671Z,2.97
2023-04-12T14:35:39.305Z,2.57
2023-04-12T14:38:42.059Z,3.35
2023-04-12T14:41:44.494Z,3.22
2023-04-12T14:44:47.005Z,1.55
2023-04-12T14:47:49.556Z,1.67
2023-04-12T14:50:52.790Z,2.50
2023-04-12T14:53:55.991Z,1.83
2023-04-12T14:56:59.402Z,3.72
2023-04-12T15:00:01.975Z,1.80
2023-04-12T15:03:05.579Z,1.45
2023-04-12T15:06:08.933Z,2.40
2023-04-12T15:09:13.664Z,2.67
2023-04-12T15:12:17.193Z,3.90
2023-04-12T15:15:20.170Z,2.70
2023-04-12T15:18:22.743Z,2.25
2023-04-12T15:21:26.145Z,1.73
2023-04-12T15:24:30.846Z,2.92
2023-04-12T15:27:33.312Z,2.58
2023-04-12T15:30:35.807Z,1.98
2023-04-12T15:33:38.526Z,2.05
2023-04-12T15:36:43.141Z,1.53
2023-04-12T15:39:45.973Z,2.53
2023-04-12T15:42:49.021Z,1.45
2023-04-12T15:45:54.525Z,1.70
2023-04-12T15:49:00.219Z,2.85
2023-04-12T15:52:03.874Z,1.23
2023-04-12T15:55:06.617Z,1.55
2023-04-12T15:58:10.318Z,3.10
2023-04-12T16:01:12.818Z,2.88
2023-04-12T16:04:18.406Z,1.77
2023-04-12T16:07:21.191Z,2.00
2023-04-12T16:10:23.871Z,3.10
2023-04-12T16:13:27.369Z,2.70
2023-04-12T16:16:30.197Z,2.42
2023-04-12T16:19:33.443Z,3.25
2023-04-12T16:22:37.948Z,3.27
2023-04-12T16:25:40.430Z,3.17
2023-04-12T16:28:42.973Z,2.08
2023-04-12T16:31:45.534Z,2.55
2023-04-12T16:34:47.981Z,3.35
2023-04-12T16:37:50.840Z,3.73
2023-04-12T16:40:53.655Z,2.13
2023-04-12T16:44:01.415Z,1.80
2023-04-12T16:47:04.037Z,2.83
2023-04-12T16:50:09.801Z,2.30
2023-04-12T16:53:12.993Z,2.27
2023-04-12T16:56:16.962Z,2.30
2023-04-12T16:59:20.060Z,2.17
2023-04-12T17:02:22.818Z,2.67
2023-04-12T17:05:25.553Z,3.10
2023-04-12T17:08:28.319Z,5.07
2023-04-12T17:11:31.631Z,2.63
2023-04-12T17:14:36.348Z,2.95
2023-04-12T17:17:39.353Z,3.50
2023-04-12T17:20:42.965Z,1.95
2023-04-12T17:23:48.880Z,2.40
2023-04-12T17:26:53.317Z,3.42
2023-04-12T17:29:56.173Z,2.72
2023-04-12T17:33:01.246Z,7.43
2023-04-12T17:36:04.485Z,3.20
2023-04-12T17:39:07.653Z,2.27
2023-04-12T17:42:10.542Z,4.22
2023-04-12T17:45:14.684Z,1.23
2023-04-12T17:48:17.579Z,4.00
2023-04-12T17:51:20.530Z,2.70
2023-04-12T17:54:24.785Z,3.10
2023-04-12T17:57:27.756Z,3.80
2023-04-12T18:00:30.663Z,2.92
2023-04-12T18:03:34.538Z,5.32
2023-04-12T18:06:39.225Z,18.45
2023-04-12T18:09:44.717Z,6.37
2023-04-12T18:12:47.792Z,3.78
2023-04-12T18:15:50.858Z,5.45
2023-04-12T18:18:54.941Z,2.90
2023-04-12T18:21:58.778Z,5.90
2023-04-12T18:25:02.270Z,4.60
2023-04-12T18:28:05.247Z,3.97
2023-04-12T18:31:08.090Z,6.03
2023-04-12T18:34:11.096Z,6.70
2023-04-12T18:37:13.546Z,4.15
2023-04-12T18:40:16.510Z,5.73
2023-04-12T18:43:19.425Z,6.00
2023-04-12T18:46:22.797Z,5.85
2023-04-12T18:49:26.016Z,3.55
2023-04-12T18:52:28.911Z,4.50
2023-04-12T18:55:31.834Z,6.67
2023-04-12T19:01:41.961Z,6.20
2023-04-12T19:04:44.786Z,13.00
2023-04-12T19:07:50.914Z,12.95
2023-04-12T19:10:54.148Z,15.53
2023-04-12T19:13:57.394Z,18.05
2023-04-12T19:17:01.023Z,20.60
2023-04-12T19:20:09.268Z,29.60
2023-04-12T19:23:13.731Z,27.35
2023-04-12T19:26:17.244Z,23.10
2023-04-12T19:29:21.113Z,23.77
2023-04-12T19:32:23.728Z,18.90
2023-04-12T19:35:28.929Z,21.17
2023-04-12T19:38:31.826Z,19.80
2023-04-12T19:41:34.583Z,14.93
2023-04-12T19:44:40.198Z,12.65
2023-04-12T19:47:46.515Z,12.25
2023-04-12T19:50:49.582Z,13.73
2023-04-12T19:53:54.777Z,12.95
2023-04-12T19:56:57.349Z,10.63
2023-04-12T20:00:01.515Z,10.25
2023-04-12T20:09:50.626Z,10.25
2023-04-12T20:12:53.485Z,13.25
2023-04-12T20:15:56.275Z,12.77
2023-04-12T20:18:59.996Z,12.07
2023-04-12T20:22:04.019Z,12.82
2023-04-12T20:25:06.919Z,16.58
2023-04-12T20:28:10.024Z,15.38
2023-04-12T20:31:15.925Z,15.73
2023-04-12T20:34:19.275Z,15.00
2023-04-12T20:37:23.382Z,16.98
2023-04-12T20:40:30.330Z,17.25
2023-04-12T20:43:34.786Z,17.05
2023-04-12T20:46:38.690Z,15.83
2023-04-12T20:49:42.404Z,17.60
2023-04-12T20:52:46.259Z,16.48
2023-04-12T20:55:48.781Z,14.30
2023-04-12T20:58:51.319Z,15.43
2023-04-12T21:01:54.609Z,13.90
2023-04-12T21:04:59.195Z,15.18
2023-04-12T21:08:02.313Z,15.35
2023-04-12T21:11:05.040Z,15.88
2023-04-12T21:14:11.241Z,15.38
2023-04-12T21:17:14.534Z,23.27
2023-04-12T21:20:18.537Z,21.95
2023-04-12T21:23:21.250Z,16.45
2023-04-12T21:26:23.796Z,19.92
2023-04-12T21:29:26.254Z,17.33
2023-04-12T21:32:30.031Z,13.53
2023-04-12T21:35:32.791Z,16.92
2023-04-12T21:38:35.281Z,16.00
2023-04-12T21:41:37.825Z,17.88
2023-04-12T21:44:43.340Z,22.80
2023-04-12T21:47:45.982Z,22.33
2023-04-12T21:50:48.531Z,19.38
2023-04-12T21:53:51.629Z,22.00
2023-04-12T21:56:54.054Z,22.58
2023-04-12T21:59:56.565Z,19.17
2023-04-12T22:02:59.697Z,18.67
2023-04-12T22:06:04.693Z,17.40
2023-04-12T22:09:08.705Z,17.00
2023-04-12T22:12:12.540Z,14.55
2023-04-12T22:15:16.453Z,15.63
2023-04-12T22:18:19.413Z,19.83
2023-04-12T22:21:22.773Z,11.23
2023-04-12T22:24:26.317Z,12.63
2023-04-12T22:27:29.830Z,10.48
2023-04-12T22:30:32.908Z,9.45
2023-04-12T22:33:37.005Z,9.13
2023-04-12T22:36:42.623Z,9.75
2023-04-12T22:39:47.127Z,7.30
2023-04-12T22:42:49.645Z,9.02
2023-04-12T22:45:54.074Z,8.57
2023-04-12T22:48:56.583Z,11.83
2023-04-12T22:51:59.139Z,9.70
2023-04-12T22:55:01.983Z,11.85
2023-04-12T22:58:07.118Z,9.90
2023-04-12T23:01:10.931Z,10.40
2023-04-12T23:04:15.779Z,15.77
2023-04-12T23:07:18.258Z,15.80
2023-04-12T23:10:20.906Z,17.70
2023-04-12T23:13:23.665Z,10.65
2023-04-12T23:16:26.394Z,15.07
2023-04-12T23:19:29.048Z,15.20
2023-04-12T23:22:52.810Z,16.08
2023-04-12T23:25:57.983Z,13.48
2023-04-12T23:29:03.545Z,13.90
2023-04-12T23:32:06.444Z,12.25
2023-04-12T23:35:09.256Z,18.93
2023-04-12T23:38:15.744Z,16.75
2023-04-12T23:41:18.507Z,17.17
2023-04-12T23:44:20.987Z,17.30
2023-04-12T23:47:24.196Z,16.73
2023-04-12T23:50:27.723Z,19.60
2023-04-12T23:53:30.857Z,17.13
2023-04-12T23:56:33.274Z,21.80
2023-04-12T23:59:42.035Z,20.90
